Pagrindinis puslapis
METAR-TAF:

METAR-TAF

Oro uostai :

Parnaíba, Piauí, Brazilija

platuma: 02-55S, ilguma: 041-45W, Aukštis: 5 m

Dabartinis oras

Ataskaita buvo paskelbta 21 minutes, ne 19:45 UTC
Vėjas 7 kt iš Rytų
Temperatūra 25°C
Drėgmė 100%
Slėgis 1009 hPa
Matomumas 10 km arba daugiau
Išsisklaidę debesys ne aukštis 1500 ft
Su prošvaistėmis ne aukštis 8000 ft

METAR: SBPB 171945Z 10007KT 9999 SCT015 BKN080 25/25 Q1009 RETS

Laikas: 17:06 (20:06 UTC)

Prognozė

Ataskaita buvo paskelbta 4 valandos ir 6 minutes, ne 16:00 UTC
Prognozė galioja nuo 17 metu 18 UTC su 18 metu 06 UTC
Vėjas 8 kt iš Šiaurės Rytų
Matomumas: 8000 m
Išsisklaidę debesys ne aukštis 1700 ft
Mažai debesys ne aukštis 2500 ft, aukštai iškilę kamuoliniai debesys.
lietus
Tapsmas
nuo 17 metu 23 UTC su 18 metu 01 UTC
Vėjas 8 kt iš Rytų
Matomumas: 8000 m
Išsisklaidę debesys ne aukštis 1700 ft
lietus

TAF: SBPB 171600Z 1718/1806 05008KT 8000 SHRA SCT017 FEW025TCU TX30/1718Z TN25/1806Z BECMG 1723/1801 09008KT 8000 SHRA SCT017 RMK PAY

Orai ataskaitas ir orų prognozės (METAR, TAF).

turimą stotys yra geltonos ir raudonos taškus žemėlapyje.

Perkelti pele per norėdami pamatyti stoties vardą.

Tada spustelėkite, norėdami matyti oro stebėjimo ir prognozės.

Norėdami pakeisti žemėlapį: spustelėkite ant žalios mygtukų su juodo kryžiaus žemyn,; žalią mygtuką su brūkšneliu, jei norite nutolinti; arba žalių rodyklių gretimoms žemėlapius.


METAR-TAF: